Time;durP1;ratioP1;P1;durP2;ratioP2;P2;SDS_P1;SDS_P2;PMS_P1;PMS_P2;Temp;Humidity;BMP_temperature;BMP_pressure;BME280_temperature;BME280_humidity;BME280_pressure;Samples;Min_cycle;Max_cycle;Signal;HPM_P1;HPM_P2
2022/11/26 00:00:55;;;;;;;;;;;;;;;;;;4928530;28;19918;-63
2022/11/26 00:03:20;;;;;;;;;;;;;;;;;;4909899;29;19934;-64
2022/11/26 00:05:45;;;;;;;;;;;;;;;;;;4927110;28;20142;-62
2022/11/26 00:08:15;;;;;;;;;;;;;;;;;;4909187;29;19930;-62
2022/11/26 00:10:40;;;;;;;;;;;;;;;;;;4927779;28;20037;-62
2022/11/26 00:13:06;;;;;;;;;;;;;;;;;;4927603;29;20080;-62
2022/11/26 00:15:31;;;;;;;;;;;;;;;;;;4894162;29;19977;-63
2022/11/26 00:17:57;;;;;;;;;;;;;;;;;;4907382;29;20077;-63
2022/11/26 00:20:22;;;;;;;;;;;;;;;;;;4907960;29;20392;-63
2022/11/26 00:22:47;;;;;;;;;;;;;;;;;;4904803;29;20234;-63
2022/11/26 00:25:13;;;;;;;;;;;;;;;;;;4909989;29;20021;-63
2022/11/26 00:27:46;;;;;;;;;;;;;;;;;;4926905;28;19944;-62
2022/11/26 00:30:11;;;;;;;;;;;;;;;;;;4894409;29;19922;-62
2022/11/26 00:32:36;;;;;;;;;;;;;;;;;;4927613;28;19934;-62
2022/11/26 00:35:01;;;;;;;;;;;;;;;;;;4891025;29;19927;-64
2022/11/26 00:37:29;;;;;;;;;;;;;;;;;;4927874;29;20024;-64
2022/11/26 00:39:54;;;;;;;;;;;;;;;;;;4906914;29;20453;-62
2022/11/26 00:42:22;;;;;;;;;;;;;;;;;;4907222;29;20267;-63
2022/11/26 00:44:48;;;;;;;;;;;;;;;;;;4927696;28;20266;-63
2022/11/26 00:47:15;;;;;;;;;;;;;;;;;;4927272;29;19926;-63
2022/11/26 00:49:43;;;;;;;;;;;;;;;;;;4927583;29;19977;-63
2022/11/26 00:52:11;;;;;;;;;;;;;;;;;;4926316;28;20092;-63
2022/11/26 00:54:37;;;;;;;;;;;;;;;;;;4926954;28;19958;-63
2022/11/26 00:57:03;;;;;;;;;;;;;;;;;;4908980;29;20040;-62
2022/11/26 00:59:30;;;;;;;;;;;;;;;;;;4927525;28;20321;-64
2022/11/26 01:01:56;;;;;;;;;;;;;;;;;;4928524;29;20091;-63
2022/11/26 01:04:25;;;;;;;;;;;;;;;;;;4927909;28;19934;-63
2022/11/26 01:06:50;;;;;;;;;;;;;;;;;;4892252;29;21810;-63
2022/11/26 01:09:16;;;;;;;;;;;;;;;;;;4927249;29;20366;-63
2022/11/26 01:11:41;;;;;;;;;;;;;;;;;;4908735;29;20193;-63
2022/11/26 01:14:07;;;;;;;;;;;;;;;;;;4907865;29;20535;-63
2022/11/26 01:16:32;;;;;;;;;;;;;;;;;;4905507;29;19922;-65
2022/11/26 01:18:57;;;;;;;;;;;;;;;;;;4925411;28;20521;-63
2022/11/26 01:21:25;;;;;;;;;;;;;;;;;;4920986;28;19923;-62
2022/11/26 01:23:55;;;;;;;;;;;;;;;;;;4903155;29;19922;-63
2022/11/26 01:26:20;;;;;;;;;;;;;;;;;;4891001;29;19949;-63
2022/11/26 01:28:48;;;;;;;;;;;;;;;;;;4926893;29;20416;-63
2022/11/26 01:31:17;;;;;;;;;;;;;;;;;;4927387;28;19922;-64
2022/11/26 01:33:42;;;;;;;;;;;;;;;;;;4890391;29;19934;-64
2022/11/26 01:36:07;;;;;;;;;;;;;;;;;;4907135;29;20386;-64
2022/11/26 01:38:33;;;;;;;;;;;;;;;;;;4925746;28;19919;-63
2022/11/26 01:41:01;;;;;;;;;;;;;;;;;;4924642;28;20373;-63
2022/11/26 01:43:39;;;;;;;;;;;;;;;;;;4906574;29;19957;-63
2022/11/26 01:46:09;;;;;;;;;;;;;;;;;;4927764;28;19923;-64
2022/11/26 01:48:37;;;;;;;;;;;;;;;;;;4899294;29;20351;-63
2022/11/26 01:51:06;;;;;;;;;;;;;;;;;;4907615;29;19950;-62
2022/11/26 01:53:37;;;;;;;;;;;;;;;;;;4909135;29;19965;-64
2022/11/26 01:56:02;;;;;;;;;;;;;;;;;;4906614;29;20381;-63
2022/11/26 01:58:27;;;;;;;;;;;;;;;;;;4906320;29;19922;-63
2022/11/26 02:00:59;;;;;;;;;;;;;;;;;;4926477;29;19923;-63
2022/11/26 02:03:25;;;;;;;;;;;;;;;;;;4892270;28;19922;-63
2022/11/26 02:05:50;;;;;;;;;;;;;;;;;;4907973;29;20548;-63
2022/11/26 02:08:18;;;;;;;;;;;;;;;;;;4890546;29;20519;-62
2022/11/26 02:10:44;;;;;;;;;;;;;;;;;;4908041;29;19923;-64
2022/11/26 02:13:09;;;;;;;;;;;;;;;;;;4890100;29;19977;-64
2022/11/26 02:15:34;;;;;;;;;;;;;;;;;;4907820;29;20289;-63
2022/11/26 02:18:00;;;;;;;;;;;;;;;;;;4927172;29;20128;-62
2022/11/26 02:20:26;;;;;;;;;;;;;;;;;;4923963;28;20010;-63
2022/11/26 02:22:51;;;;;;;;;;;;;;;;;;4906748;28;19923;-65
2022/11/26 02:25:17;;;;;;;;;;;;;;;;;;4909178;28;19922;-63
2022/11/26 02:27:42;;;;;;;;;;;;;;;;;;4896185;29;20560;-63
2022/11/26 02:30:12;;;;;;;;;;;;;;;;;;4903348;29;19918;-64
2022/11/26 02:32:37;;;;;;;;;;;;;;;;;;4909618;29;19938;-64
2022/11/26 02:35:03;;;;;;;;;;;;;;;;;;4930258;29;19922;-64
2022/11/26 02:37:28;;;;;;;;;;;;;;;;;;4928275;28;19929;-63
2022/11/26 02:39:54;;;;;;;;;;;;;;;;;;4907269;28;19927;-63
2022/11/26 02:42:19;;;;;;;;;;;;;;;;;;4912042;29;19922;-63
2022/11/26 02:44:45;;;;;;;;;;;;;;;;;;4928942;28;19922;-62
2022/11/26 02:47:11;;;;;;;;;;;;;;;;;;4929812;28;20401;-63
2022/11/26 02:49:36;;;;;;;;;;;;;;;;;;4894380;29;19923;-63
2022/11/26 02:52:01;;;;;;;;;;;;;;;;;;4910889;29;20079;-63
2022/11/26 02:54:27;;;;;;;;;;;;;;;;;;4909393;29;19966;-62
2022/11/26 02:56:52;;;;;;;;;;;;;;;;;;4909643;29;19923;-62
2022/11/26 02:59:17;;;;;;;;;;;;;;;;;;4929486;28;19922;-63
2022/11/26 03:01:43;;;;;;;;;;;;;;;;;;4907762;29;19941;-64
2022/11/26 03:04:10;;;;;;;;;;;;;;;;;;4910766;29;19930;-63
2022/11/26 03:06:40;;;;;;;;;;;;;;;;;;4894935;29;19933;-63
2022/11/26 03:12:00;;;;;;;;;;;;;;;;;;4910796;29;20178;-63
2022/11/26 03:14:30;;;;;;;;;;;;;;;;;;4905806;29;20021;-62
2022/11/26 03:16:56;;;;;;;;;;;;;;;;;;4929509;28;19929;-62
2022/11/26 03:19:24;;;;;;;;;;;;;;;;;;4911159;29;20107;-63
2022/11/26 03:21:49;;;;;;;;;;;;;;;;;;4891474;29;20017;-63
2022/11/26 03:24:17;;;;;;;;;;;;;;;;;;4927780;28;19945;-63
2022/11/26 03:26:43;;;;;;;;;;;;;;;;;;4928396;29;19923;-62
2022/11/26 03:29:08;;;;;;;;;;;;;;;;;;4908937;29;20461;-62
2022/11/26 03:31:33;;;;;;;;;;;;;;;;;;4911678;29;20002;-62
2022/11/26 03:34:01;;;;;;;;;;;;;;;;;;4908311;28;19962;-62
2022/11/26 03:36:29;;;;;;;;;;;;;;;;;;4908796;29;19930;-62
2022/11/26 03:38:54;;;;;;;;;;;;;;;;;;4926899;28;20174;-63
2022/11/26 03:41:22;;;;;;;;;;;;;;;;;;4929914;29;20330;-61
2022/11/26 03:43:48;;;;;;;;;;;;;;;;;;4909264;29;19930;-63
2022/11/26 03:46:18;;;;;;;;;;;;;;;;;;4906974;29;19922;-62
2022/11/26 03:48:45;;;;;;;;;;;;;;;;;;4903791;29;19927;-62
2022/11/26 03:51:13;;;;;;;;;;;;;;;;;;4893246;29;20889;-62
2022/11/26 03:53:56;;;;;;;;;;;;;;;;;;4907592;29;20260;-62
2022/11/26 03:56:24;;;;;;;;;;;;;;;;;;4907865;29;20053;-61
2022/11/26 03:58:52;;;;;;;;;;;;;;;;;;4928148;28;19923;-61
2022/11/26 04:01:17;;;;;;;;;;;;;;;;;;4907711;29;20017;-63
2022/11/26 04:03:46;;;;;;;;;;;;;;;;;;4908607;28;19945;-61
2022/11/26 04:06:11;;;;;;;;;;;;;;;;;;4913935;29;19973;-61
2022/11/26 04:08:36;;;;;;;;;;;;;;;;;;4909568;29;20994;-61
2022/11/26 04:11:01;;;;;;;;;;;;;;;;;;4908837;28;20420;-62
2022/11/26 04:13:29;;;;;;;;;;;;;;;;;;4928751;28;19918;-62
2022/11/26 04:15:54;;;;;;;;;;;;;;;;;;4928198;28;19926;-62
2022/11/26 04:18:20;;;;;;;;;;;;;;;;;;4928813;28;19945;-61
2022/11/26 04:20:48;;;;;;;;;;;;;;;;;;4903953;29;19922;-61
2022/11/26 04:23:13;;;;;;;;;;;;;;;;;;4902947;29;21600;-61
2022/11/26 04:25:43;;;;;;;;;;;;;;;;;;4928140;29;19918;-61
2022/11/26 04:28:12;;;;;;;;;;;;;;;;;;4927423;28;19930;-62
2022/11/26 04:30:37;;;;;;;;;;;;;;;;;;4905290;28;19938;-62
2022/11/26 04:33:05;;;;;;;;;;;;;;;;;;4907916;29;19949;-61
2022/11/26 04:35:30;;;;;;;;;;;;;;;;;;4928100;28;20539;-61
2022/11/26 04:37:56;;;;;;;;;;;;;;;;;;4927888;28;19923;-61
2022/11/26 04:40:24;;;;;;;;;;;;;;;;;;4909141;28;19922;-61
2022/11/26 04:42:52;;;;;;;;;;;;;;;;;;4928049;29;19922;-61
2022/11/26 04:45:17;;;;;;;;;;;;;;;;;;4893003;29;20562;-61
2022/11/26 04:47:45;;;;;;;;;;;;;;;;;;4927204;28;20866;-61
2022/11/26 04:50:13;;;;;;;;;;;;;;;;;;4906850;29;19929;-61
2022/11/26 04:52:38;;;;;;;;;;;;;;;;;;4926937;28;20012;-61
2022/11/26 04:55:08;;;;;;;;;;;;;;;;;;4907705;29;20045;-60
2022/11/26 04:57:36;;;;;;;;;;;;;;;;;;4927451;28;19919;-61
2022/11/26 05:00:01;;;;;;;;;;;;;;;;;;4925268;29;20495;-60
2022/11/26 05:02:29;;;;;;;;;;;;;;;;;;4907608;29;19925;-60
2022/11/26 05:04:55;;;;;;;;;;;;;;;;;;4906719;29;20446;-61
2022/11/26 05:07:23;;;;;;;;;;;;;;;;;;4908573;29;19939;-63
2022/11/26 05:09:48;;;;;;;;;;;;;;;;;;4907804;28;20350;-61
2022/11/26 05:12:17;;;;;;;;;;;;;;;;;;4928035;28;19933;-61
2022/11/26 05:14:42;;;;;;;;;;;;;;;;;;4927201;28;20390;-61
2022/11/26 05:17:10;;;;;;;;;;;;;;;;;;4909098;28;19923;-62
2022/11/26 05:19:38;;;;;;;;;;;;;;;;;;4908866;28;19919;-62
2022/11/26 05:22:04;;;;;;;;;;;;;;;;;;4926372;28;19961;-61
2022/11/26 05:24:29;;;;;;;;;;;;;;;;;;4906266;28;19926;-61
2022/11/26 05:26:55;;;;;;;;;;;;;;;;;;4909951;28;19930;-61
2022/11/26 05:29:22;;;;;;;;;;;;;;;;;;4907201;28;20018;-61
2022/11/26 05:31:47;;;;;;;;;;;;;;;;;;4906177;29;19926;-61
2022/11/26 05:34:15;;;;;;;;;;;;;;;;;;4904221;28;20239;-61
2022/11/26 05:36:42;;;;;;;;;;;;;;;;;;4927953;28;19918;-61
2022/11/26 05:39:10;;;;;;;;;;;;;;;;;;4907495;28;20080;-61
2022/11/26 05:41:38;;;;;;;;;;;;;;;;;;4925871;28;19918;-61
2022/11/26 05:44:06;;;;;;;;;;;;;;;;;;4906215;29;20461;-62
2022/11/26 05:46:32;;;;;;;;;;;;;;;;;;4898532;28;19929;-61
2022/11/26 05:48:57;;;;;;;;;;;;;;;;;;4909872;29;20358;-61
2022/11/26 05:51:23;;;;;;;;;;;;;;;;;;4907143;29;20018;-60
2022/11/26 05:53:48;;;;;;;;;;;;;;;;;;4905888;29;20406;-61
2022/11/26 05:56:19;;;;;;;;;;;;;;;;;;4908645;29;20153;-60
2022/11/26 05:58:54;;;;;;;;;;;;;;;;;;4908951;29;21609;-62
2022/11/26 06:01:19;;;;;;;;;;;;;;;;;;4931581;28;19926;-60
2022/11/26 06:03:46;;;;;;;;;;;;;;;;;;4892683;29;19934;-61
2022/11/26 06:06:13;;;;;;;;;;;;;;;;;;4931097;28;19922;-60
2022/11/26 06:08:40;;;;;;;;;;;;;;;;;;4929801;28;19926;-61
2022/11/26 06:11:06;;;;;;;;;;;;;;;;;;4898779;28;19957;-61
2022/11/26 06:13:31;;;;;;;;;;;;;;;;;;4911760;29;19925;-61
2022/11/26 06:15:56;;;;;;;;;;;;;;;;;;4930470;28;19926;-60
2022/11/26 06:18:24;;;;;;;;;;;;;;;;;;4931223;28;19923;-61
2022/11/26 06:20:53;;;;;;;;;;;;;;;;;;4909994;29;19942;-61
2022/11/26 06:23:18;;;;;;;;;;;;;;;;;;4930060;28;20191;-62
2022/11/26 06:25:44;;;;;;;;;;;;;;;;;;4929784;28;19969;-61
2022/11/26 06:28:09;;;;;;;;;;;;;;;;;;4929940;28;20829;-61
2022/11/26 06:30:35;;;;;;;;;;;;;;;;;;4895389;29;19922;-61
2022/11/26 06:33:00;;;;;;;;;;;;;;;;;;4929847;29;19929;-61
2022/11/26 06:35:37;;;;;;;;;;;;;;;;;;4907120;29;19954;-61
2022/11/26 06:38:05;;;;;;;;;;;;;;;;;;4907022;28;20112;-62
2022/11/26 06:40:30;;;;;;;;;;;;;;;;;;4928906;28;20345;-62
2022/11/26 06:42:55;;;;;;;;;;;;;;;;;;4893546;29;22045;-62
2022/11/26 06:45:20;;;;;;;;;;;;;;;;;;4890605;29;19934;-63
2022/11/26 06:47:48;;;;;;;;;;;;;;;;;;4911086;29;20343;-62
2022/11/26 06:50:16;;;;;;;;;;;;;;;;;;4930444;28;19934;-61
2022/11/26 06:52:41;;;;;;;;;;;;;;;;;;4909274;29;19956;-61
2022/11/26 06:55:11;;;;;;;;;;;;;;;;;;4893360;29;19922;-62
2022/11/26 06:57:39;;;;;;;;;;;;;;;;;;4905736;29;20086;-62
2022/11/26 07:00:05;;;;;;;;;;;;;;;;;;4911633;29;19929;-61
2022/11/26 07:02:30;;;;;;;;;;;;;;;;;;4910836;29;19922;-62
2022/11/26 07:04:55;;;;;;;;;;;;;;;;;;4909743;29;20326;-61
2022/11/26 07:10:06;;;;;;;;;;;;;;;;;;4927111;28;19923;-60
2022/11/26 07:12:34;;;;;;;;;;;;;;;;;;4929530;29;19933;-61
2022/11/26 07:14:59;;;;;;;;;;;;;;;;;;4930018;29;20064;-61
2022/11/26 07:17:27;;;;;;;;;;;;;;;;;;4892304;29;20529;-60
2022/11/26 07:19:53;;;;;;;;;;;;;;;;;;4928716;29;19945;-61
2022/11/26 07:22:23;;;;;;;;;;;;;;;;;;4928784;29;19922;-61
2022/11/26 07:24:56;;;;;;;;;;;;;;;;;;4910464;29;19945;-62
2022/11/26 07:27:26;;;;;;;;;;;;;;;;;;4929352;29;20017;-61
2022/11/26 07:29:54;;;;;;;;;;;;;;;;;;4927699;28;19986;-61
2022/11/26 07:32:22;;;;;;;;;;;;;;;;;;4910461;29;19922;-61
2022/11/26 07:34:47;;;;;;;;;;;;;;;;;;4929167;28;19918;-61
2022/11/26 07:37:12;;;;;;;;;;;;;;;;;;4927698;29;19949;-62
2022/11/26 07:39:43;;;;;;;;;;;;;;;;;;4928999;28;19922;-61
2022/11/26 07:42:08;;;;;;;;;;;;;;;;;;4927574;29;19922;-61
2022/11/26 07:44:36;;;;;;;;;;;;;;;;;;4892711;29;19919;-61
2022/11/26 07:47:03;;;;;;;;;;;;;;;;;;4906037;29;19949;-61
2022/11/26 07:49:28;;;;;;;;;;;;;;;;;;4929275;29;19922;-61
2022/11/26 07:51:53;;;;;;;;;;;;;;;;;;4928599;29;19978;-61
2022/11/26 07:54:19;;;;;;;;;;;;;;;;;;4908595;29;20465;-61
2022/11/26 07:57:02;;;;;;;;;;;;;;;;;;4928764;28;20388;-61
2022/11/26 08:02:43;;;;;;;;;;;;;;;;;;4927811;29;19928;-61
2022/11/26 08:05:11;;;;;;;;;;;;;;;;;;4895793;29;19992;-62
2022/11/26 08:07:39;;;;;;;;;;;;;;;;;;4910250;29;20724;-62
2022/11/26 08:10:05;;;;;;;;;;;;;;;;;;4909775;28;19930;-62
2022/11/26 08:12:30;;;;;;;;;;;;;;;;;;4910049;29;20089;-61
2022/11/26 08:14:55;;;;;;;;;;;;;;;;;;4924802;28;20167;-61
2022/11/26 08:17:20;;;;;;;;;;;;;;;;;;4928066;28;19919;-61
2022/11/26 08:19:46;;;;;;;;;;;;;;;;;;4910070;29;19922;-62
2022/11/26 08:22:11;;;;;;;;;;;;;;;;;;4894540;28;19977;-62
2022/11/26 08:24:42;;;;;;;;;;;;;;;;;;4925702;28;20021;-61
2022/11/26 08:33:10;;;;;;;;;;;;;;;;;;4929196;28;20022;-61
2022/11/26 08:35:47;;;;;;;;;;;;;;;;;;4903104;28;19918;-61
2022/11/26 08:41:29;;;;;;;;;;;;;;;;;;4928411;28;19930;-61
2022/11/26 08:43:55;;;;;;;;;;;;;;;;;;4909798;29;19922;-61
2022/11/26 08:46:22;;;;;;;;;;;;;;;;;;4927322;28;19922;-62
2022/11/26 08:48:48;;;;;;;;;;;;;;;;;;4927814;28;20012;-61
2022/11/26 08:51:16;;;;;;;;;;;;;;;;;;4928717;28;20021;-61
2022/11/26 08:53:43;;;;;;;;;;;;;;;;;;4910170;29;19919;-61
2022/11/26 08:56:09;;;;;;;;;;;;;;;;;;4894405;29;19922;-61
2022/11/26 08:58:34;;;;;;;;;;;;;;;;;;4909013;28;20382;-61
2022/11/26 09:01:02;;;;;;;;;;;;;;;;;;4928061;28;19977;-61
2022/11/26 09:03:31;;;;;;;;;;;;;;;;;;4926478;28;19918;-61
2022/11/26 09:05:56;;;;;;;;;;;;;;;;;;4907414;29;19926;-61
2022/11/26 09:08:21;;;;;;;;;;;;;;;;;;4926629;28;19937;-60
2022/11/26 09:10:46;;;;;;;;;;;;;;;;;;4908257;29;19938;-60
2022/11/26 09:13:12;;;;;;;;;;;;;;;;;;4926580;29;19919;-60
2022/11/26 09:15:40;;;;;;;;;;;;;;;;;;4908418;29;20017;-61
2022/11/26 09:18:17;;;;;;;;;;;;;;;;;;4925394;28;20373;-61
2022/11/26 09:20:48;;;;;;;;;;;;;;;;;;4926177;28;20433;-61
2022/11/26 09:23:13;;;;;;;;;;;;;;;;;;4904283;28;19923;-61
2022/11/26 09:25:41;;;;;;;;;;;;;;;;;;4907806;29;20009;-60
2022/11/26 09:28:06;;;;;;;;;;;;;;;;;;4923398;28;19933;-61
2022/11/26 09:30:34;;;;;;;;;;;;;;;;;;4892654;28;19918;-61
2022/11/26 09:33:04;;;;;;;;;;;;;;;;;;4905989;29;19923;-62
2022/11/26 09:35:30;;;;;;;;;;;;;;;;;;4928427;28;19918;-61
2022/11/26 09:41:13;;;;;;;;;;;;;;;;;;4926571;28;20770;-61
2022/11/26 09:43:38;;;;;;;;;;;;;;;;;;4907015;29;19926;-60
2022/11/26 09:52:08;;;;;;;;;;;;;;;;;;4926296;28;19946;-63
2022/11/26 09:54:34;;;;;;;;;;;;;;;;;;4908432;29;19923;-61
2022/11/26 09:57:00;;;;;;;;;;;;;;;;;;4909191;29;19927;-61
2022/11/26 10:02:44;;;;;;;;;;;;;;;;;;4925721;28;20028;-60
2022/11/26 10:08:37;;;;;;;;;;;;;;;;;;4926015;28;19936;-62
2022/11/26 10:11:02;;;;;;;;;;;;;;;;;;4925782;29;19933;-62
2022/11/26 10:13:39;;;;;;;;;;;;;;;;;;4925930;29;19953;-62
2022/11/26 10:18:58;;;;;;;;;;;;;;;;;;4926641;28;19985;-62
2022/11/26 10:27:57;;;;;;;;;;;;;;;;;;4924619;29;19933;-60
2022/11/26 10:30:22;;;;;;;;;;;;;;;;;;4915438;28;19966;-61
2022/11/26 10:32:48;;;;;;;;;;;;;;;;;;4926605;29;19976;-60
2022/11/26 10:35:14;;;;;;;;;;;;;;;;;;4907292;29;19974;-60
2022/11/26 10:37:42;;;;;;;;;;;;;;;;;;4926505;29;19919;-60
2022/11/26 10:40:07;;;;;;;;;;;;;;;;;;4904903;29;20328;-60
2022/11/26 10:42:35;;;;;;;;;;;;;;;;;;4926497;28;20305;-60
2022/11/26 10:45:00;;;;;;;;;;;;;;;;;;4911504;29;20879;-60
2022/11/26 11:00:11;;;;;;;;;;;;;;;;;;4919078;28;19926;-62
2022/11/26 11:09:09;;;;;;;;;;;;;;;;;;4927650;28;20027;-60
2022/11/26 11:11:37;;;;;;;;;;;;;;;;;;4927504;29;19972;-61
2022/11/26 11:14:14;;;;;;;;;;;;;;;;;;4910802;28;19926;-60
2022/11/26 11:16:39;;;;;;;;;;;;;;;;;;4929963;28;19922;-60
2022/11/26 11:19:10;;;;;;;;;;;;;;;;;;4928682;28;19922;-60
2022/11/26 11:21:51;;;;;;;;;;;;;;;;;;4910228;29;20481;-60
2022/11/26 11:24:16;;;;;;;;;;;;;;;;;;4923935;29;19923;-60
2022/11/26 11:26:43;;;;;;;;;;;;;;;;;;4929384;28;19950;-59
2022/11/26 11:29:09;;;;;;;;;;;;;;;;;;4925256;29;20717;-60
2022/11/26 11:31:36;;;;;;;;;;;;;;;;;;4928591;29;21374;-59
2022/11/26 11:34:04;;;;;;;;;;;;;;;;;;4928539;29;20001;-60
2022/11/26 11:39:46;;;;;;;;;;;;;;;;;;4927469;29;20495;-60
2022/11/26 11:45:32;;;;;;;;;;;;;;;;;;4928431;29;20040;-60
2022/11/26 11:47:58;;;;;;;;;;;;;;;;;;4907339;29;19930;-61
2022/11/26 11:50:24;;;;;;;;;;;;;;;;;;4905992;29;19929;-60
2022/11/26 11:56:06;;;;;;;;;;;;;;;;;;4927250;29;19934;-60
2022/11/26 11:58:31;;;;;;;;;;;;;;;;;;4927081;28;19922;-59
2022/11/26 12:00:59;;;;;;;;;;;;;;;;;;4908519;28;19926;-62
2022/11/26 12:03:25;;;;;;;;;;;;;;;;;;4929195;29;20185;-60
2022/11/26 12:09:07;;;;;;;;;;;;;;;;;;4927182;29;19938;-59
2022/11/26 12:11:32;;;;;;;;;;;;;;;;;;4928471;28;19926;-61
2022/11/26 12:14:17;;;;;;;;;;;;;;;;;;4908340;28;20556;-59
2022/11/26 12:16:43;;;;;;;;;;;;;;;;;;4928451;28;19965;-59
2022/11/26 12:19:08;;;;;;;;;;;;;;;;;;4909483;29;20013;-58
2022/11/26 12:24:25;;;;;;;;;;;;;;;;;;4926874;29;19922;-60
2022/11/26 12:26:50;;;;;;;;;;;;;;;;;;4906732;29;20459;-60
2022/11/26 12:29:18;;;;;;;;;;;;;;;;;;4908184;28;19934;-59
2022/11/26 12:31:43;;;;;;;;;;;;;;;;;;4903169;28;19925;-60
2022/11/26 12:34:08;;;;;;;;;;;;;;;;;;4933073;28;19923;-60
2022/11/26 12:36:35;;;;;;;;;;;;;;;;;;4902387;29;20378;-59
2022/11/26 12:39:00;;;;;;;;;;;;;;;;;;4925277;28;20183;-60
2022/11/26 12:41:29;;;;;;;;;;;;;;;;;;4927313;29;19923;-60
2022/11/26 12:46:45;;;;;;;;;;;;;;;;;;4927758;28;19945;-60
2022/11/26 12:49:12;;;;;;;;;;;;;;;;;;4913720;28;20393;-60
2022/11/26 12:51:56;;;;;;;;;;;;;;;;;;4907050;29;19968;-59
2022/11/26 12:57:38;;;;;;;;;;;;;;;;;;4926207;29;20296;-59
2022/11/26 13:03:20;;;;;;;;;;;;;;;;;;4927191;29;20410;-60
2022/11/26 13:05:47;;;;;;;;;;;;;;;;;;4928664;28;19931;-60
2022/11/26 13:08:12;;;;;;;;;;;;;;;;;;4885578;29;20405;-61
2022/11/26 13:10:38;;;;;;;;;;;;;;;;;;4891625;29;19926;-59
2022/11/26 13:13:03;;;;;;;;;;;;;;;;;;4908971;29;19926;-60
2022/11/26 13:18:45;;;;;;;;;;;;;;;;;;4926128;28;21581;-60
2022/11/26 13:21:28;;;;;;;;;;;;;;;;;;4928793;29;19990;-59
2022/11/26 13:23:56;;;;;;;;;;;;;;;;;;4906341;29;20374;-59
2022/11/26 13:26:21;;;;;;;;;;;;;;;;;;4908295;29;19923;-60
2022/11/26 13:28:49;;;;;;;;;;;;;;;;;;4906060;28;20513;-60
2022/11/26 13:31:14;;;;;;;;;;;;;;;;;;4926277;28;20044;-60
2022/11/26 13:33:40;;;;;;;;;;;;;;;;;;4905608;28;21642;-60
2022/11/26 13:36:05;;;;;;;;;;;;;;;;;;4926713;29;20334;-60
2022/11/26 13:38:33;;;;;;;;;;;;;;;;;;4890719;28;19933;-60
2022/11/26 13:41:00;;;;;;;;;;;;;;;;;;4925708;28;19923;-60
2022/11/26 13:43:29;;;;;;;;;;;;;;;;;;4909679;29;20001;-59
2022/11/26 13:45:54;;;;;;;;;;;;;;;;;;4909034;29;20009;-60
2022/11/26 13:48:20;;;;;;;;;;;;;;;;;;4927525;28;21527;-60
2022/11/26 13:50:47;;;;;;;;;;;;;;;;;;4926506;28;19922;-59
2022/11/26 13:53:15;;;;;;;;;;;;;;;;;;4926676;28;19934;-60
2022/11/26 13:55:40;;;;;;;;;;;;;;;;;;4905653;29;19954;-60
2022/11/26 13:58:08;;;;;;;;;;;;;;;;;;4907292;28;20282;-60
2022/11/26 14:00:36;;;;;;;;;;;;;;;;;;4907463;29;19926;-60
2022/11/26 14:03:05;;;;;;;;;;;;;;;;;;4926785;28;20001;-61
2022/11/26 14:05:30;;;;;;;;;;;;;;;;;;4926800;29;20193;-60
2022/11/26 14:08:11;;;;;;;;;;;;;;;;;;4890390;29;20380;-61
2022/11/26 14:14:13;;;;;;;;;;;;;;;;;;4925883;28;20388;-61
2022/11/26 14:16:41;;;;;;;;;;;;;;;;;;4902923;28;20033;-59
2022/11/26 14:22:23;;;;;;;;;;;;;;;;;;4929775;28;20005;-60
2022/11/26 14:24:54;;;;;;;;;;;;;;;;;;4928777;29;19929;-61
2022/11/26 14:27:19;;;;;;;;;;;;;;;;;;4930690;28;20459;-60
2022/11/26 14:29:47;;;;;;;;;;;;;;;;;;4909694;29;20045;-60
2022/11/26 14:32:24;;;;;;;;;;;;;;;;;;4926239;28;19922;-61
2022/11/26 14:40:30;;;;;;;;;;;;;;;;;;4928082;28;20042;-61
2022/11/26 14:42:55;;;;;;;;;;;;;;;;;;4930187;28;20479;-61
2022/11/26 14:48:06;;;;;;;;;;;;;;;;;;4930478;29;19922;-60
2022/11/26 14:50:31;;;;;;;;;;;;;;;;;;4928860;28;20401;-60
2022/11/26 14:52:59;;;;;;;;;;;;;;;;;;4910386;29;19966;-60
2022/11/26 14:55:27;;;;;;;;;;;;;;;;;;4906995;29;20394;-60
2022/11/26 14:57:53;;;;;;;;;;;;;;;;;;4909067;29;20409;-61
2022/11/26 15:00:32;;;;;;;;;;;;;;;;;;4895332;29;19926;-61
2022/11/26 15:06:14;;;;;;;;;;;;;;;;;;4911897;29;19933;-59
2022/11/26 15:08:53;;;;;;;;;;;;;;;;;;4909193;29;20302;-59
2022/11/26 15:11:19;;;;;;;;;;;;;;;;;;4909540;29;19958;-60
2022/11/26 15:17:04;;;;;;;;;;;;;;;;;;4909775;29;21099;-62
2022/11/26 15:19:31;;;;;;;;;;;;;;;;;;4908753;29;20307;-61
2022/11/26 15:21:57;;;;;;;;;;;;;;;;;;4887169;29;20517;-60
2022/11/26 15:24:34;;;;;;;;;;;;;;;;;;4892988;29;19923;-61
2022/11/26 15:30:19;;;;;;;;;;;;;;;;;;4909015;29;19945;-61
2022/11/26 15:32:44;;;;;;;;;;;;;;;;;;4875572;29;19923;-60
2022/11/26 15:35:09;;;;;;;;;;;;;;;;;;4875630;29;19926;-60
2022/11/26 15:37:35;;;;;;;;;;;;;;;;;;4877440;29;19982;-61
2022/11/26 15:40:00;;;;;;;;;;;;;;;;;;4909734;29;19969;-61
2022/11/26 15:42:28;;;;;;;;;;;;;;;;;;4908861;29;19922;-60
2022/11/26 15:44:56;;;;;;;;;;;;;;;;;;4910309;29;20535;-60
2022/11/26 15:47:24;;;;;;;;;;;;;;;;;;4888002;29;19923;-59
2022/11/26 15:49:50;;;;;;;;;;;;;;;;;;4909431;29;19933;-61
2022/11/26 15:55:34;;;;;;;;;;;;;;;;;;4908998;29;19981;-60
2022/11/26 15:58:02;;;;;;;;;;;;;;;;;;4909432;29;19927;-60
2022/11/26 16:03:44;;;;;;;;;;;;;;;;;;4910117;29;19946;-60
2022/11/26 16:06:27;;;;;;;;;;;;;;;;;;4893961;29;19953;-59
2022/11/26 16:08:55;;;;;;;;;;;;;;;;;;4928521;28;19926;-60
2022/11/26 16:11:23;;;;;;;;;;;;;;;;;;4908143;29;20070;-60
2022/11/26 16:13:48;;;;;;;;;;;;;;;;;;4907393;28;19926;-60
2022/11/26 16:16:16;;;;;;;;;;;;;;;;;;4906575;29;19926;-61
2022/11/26 16:18:41;;;;;;;;;;;;;;;;;;4918252;28;19923;-60
2022/11/26 16:21:07;;;;;;;;;;;;;;;;;;4926639;28;19918;-60
2022/11/26 16:23:35;;;;;;;;;;;;;;;;;;4907662;29;19927;-60
2022/11/26 16:26:00;;;;;;;;;;;;;;;;;;4892617;28;19926;-60
2022/11/26 16:28:28;;;;;;;;;;;;;;;;;;4927888;28;19922;-60
2022/11/26 16:30:54;;;;;;;;;;;;;;;;;;4891687;29;22004;-60
2022/11/26 16:33:20;;;;;;;;;;;;;;;;;;4908287;29;20439;-60
2022/11/26 16:35:45;;;;;;;;;;;;;;;;;;4925597;28;20525;-60
2022/11/26 16:38:10;;;;;;;;;;;;;;;;;;4929347;28;19988;-60
2022/11/26 16:40:38;;;;;;;;;;;;;;;;;;4892331;29;19998;-60
2022/11/26 16:43:08;;;;;;;;;;;;;;;;;;4906325;29;20848;-60
2022/11/26 16:45:33;;;;;;;;;;;;;;;;;;4909853;29;19930;-60
2022/11/26 16:47:59;;;;;;;;;;;;;;;;;;4927163;28;19927;-59
2022/11/26 16:50:27;;;;;;;;;;;;;;;;;;4929277;28;19926;-60
2022/11/26 16:52:54;;;;;;;;;;;;;;;;;;4907200;29;19933;-60
2022/11/26 16:55:22;;;;;;;;;;;;;;;;;;4905299;29;19919;-60
2022/11/26 16:57:48;;;;;;;;;;;;;;;;;;4925495;28;21019;-59
2022/11/26 17:00:13;;;;;;;;;;;;;;;;;;4905658;28;19918;-59
2022/11/26 17:02:38;;;;;;;;;;;;;;;;;;4923715;28;20290;-59
2022/11/26 17:05:06;;;;;;;;;;;;;;;;;;4905461;28;20004;-59
2022/11/26 17:07:31;;;;;;;;;;;;;;;;;;4920803;28;20392;-59
2022/11/26 17:09:58;;;;;;;;;;;;;;;;;;4920920;28;20358;-60
2022/11/26 17:12:23;;;;;;;;;;;;;;;;;;4905121;29;20069;-59
2022/11/26 17:14:49;;;;;;;;;;;;;;;;;;4925559;28;19922;-61
2022/11/26 17:17:17;;;;;;;;;;;;;;;;;;4926803;28;20567;-60
2022/11/26 17:19:45;;;;;;;;;;;;;;;;;;4924980;28;19962;-59
2022/11/26 17:22:14;;;;;;;;;;;;;;;;;;4926487;28;19954;-59
2022/11/26 17:24:41;;;;;;;;;;;;;;;;;;4926708;28;20482;-60
2022/11/26 17:27:06;;;;;;;;;;;;;;;;;;4903581;29;20143;-59
2022/11/26 17:29:32;;;;;;;;;;;;;;;;;;4905785;28;20020;-60
2022/11/26 17:31:58;;;;;;;;;;;;;;;;;;4889335;29;20020;-60
2022/11/26 17:34:23;;;;;;;;;;;;;;;;;;4915970;28;20457;-61
2022/11/26 17:36:48;;;;;;;;;;;;;;;;;;4903002;29;19923;-59
2022/11/26 17:39:16;;;;;;;;;;;;;;;;;;4922156;28;19927;-61
2022/11/26 17:41:44;;;;;;;;;;;;;;;;;;4923832;28;19930;-61
2022/11/26 17:44:10;;;;;;;;;;;;;;;;;;4882285;28;20111;-61
2022/11/26 17:46:35;;;;;;;;;;;;;;;;;;4920224;28;19928;-60
2022/11/26 17:49:03;;;;;;;;;;;;;;;;;;4922691;28;19922;-60
2022/11/26 17:51:29;;;;;;;;;;;;;;;;;;4897397;28;19923;-61
2022/11/26 17:53:54;;;;;;;;;;;;;;;;;;4912763;29;19934;-59
2022/11/26 17:56:19;;;;;;;;;;;;;;;;;;4911942;29;19922;-60
2022/11/26 17:58:47;;;;;;;;;;;;;;;;;;4888437;29;20593;-61
2022/11/26 18:01:15;;;;;;;;;;;;;;;;;;4906789;29;19966;-60
2022/11/26 18:03:41;;;;;;;;;;;;;;;;;;4906256;28;19929;-61
2022/11/26 18:06:09;;;;;;;;;;;;;;;;;;4924683;28;19958;-60
2022/11/26 18:08:34;;;;;;;;;;;;;;;;;;4899831;29;20059;-60
2022/11/26 18:11:00;;;;;;;;;;;;;;;;;;4903968;28;19918;-60
2022/11/26 18:13:25;;;;;;;;;;;;;;;;;;4905140;29;20001;-59
2022/11/26 18:15:51;;;;;;;;;;;;;;;;;;4892765;29;19941;-60
2022/11/26 18:18:18;;;;;;;;;;;;;;;;;;4909731;29;20486;-59
2022/11/26 18:20:44;;;;;;;;;;;;;;;;;;4907344;29;19929;-60
2022/11/26 18:23:09;;;;;;;;;;;;;;;;;;4891239;29;19923;-58
2022/11/26 18:25:34;;;;;;;;;;;;;;;;;;4910716;29;19923;-60
2022/11/26 18:28:00;;;;;;;;;;;;;;;;;;4928453;28;19926;-62
2022/11/26 18:30:25;;;;;;;;;;;;;;;;;;4930029;28;20008;-59
2022/11/26 18:32:52;;;;;;;;;;;;;;;;;;4930241;28;19925;-60
2022/11/26 18:35:18;;;;;;;;;;;;;;;;;;4893264;29;20331;-60
2022/11/26 18:37:43;;;;;;;;;;;;;;;;;;4909609;29;20522;-60
2022/11/26 18:40:09;;;;;;;;;;;;;;;;;;4909150;28;19988;-60
2022/11/26 18:42:39;;;;;;;;;;;;;;;;;;4929285;29;19973;-59
2022/11/26 18:45:04;;;;;;;;;;;;;;;;;;4895179;29;19957;-60
2022/11/26 18:47:29;;;;;;;;;;;;;;;;;;4901918;29;20593;-59